Time;durP1;ratioP1;P1;durP2;ratioP2;P2;SDS_P1;SDS_P2;PMS_P1;PMS_P2;Temp;Humidity;BMP_temperature;BMP_pressure;BME280_temperature;BME280_humidity;BME280_pressure;Samples;Min_cycle;Max_cycle;Signal;HPM_P1;HPM_P2
2023/03/30 00:00:22;;;;;;;2.95;2.65;;;;;;;14.09;55.46;100126.88;682724;29;1385;-79
2023/03/30 00:00:45;;;;;;;3.55;2.70;;;;;;;14.13;55.39;100128.63;682793;29;1221;-79
2023/03/30 00:01:10;;;;;;;4.40;2.70;;;;;;;14.08;55.28;100130.38;685364;28;1279;-79
2023/03/30 00:01:31;;;;;;;3.90;2.60;;;;;;;14.09;55.26;100137.34;682966;29;1005;-78
2023/03/30 00:01:53;;;;;;;3.60;2.90;;;;;;;14.08;55.50;100130.38;682787;29;1033;-80
2023/03/30 00:02:17;;;;;;;7.25;3.10;;;;;;;14.13;55.19;100139.13;679932;29;1453;-79
2023/03/30 00:02:42;;;;;;;8.52;3.10;;;;;;;14.12;55.24;100137.38;684957;28;1210;-80
2023/03/30 00:03:03;;;;;;;7.97;2.72;;;;;;;14.13;55.55;100133.88;685615;28;1117;-79
2023/03/30 00:03:26;;;;;;;5.10;2.78;;;;;;;14.16;55.21;100139.16;682944;29;1113;-80
2023/03/30 00:03:47;;;;;;;5.40;2.90;;;;;;;14.07;55.04;100124.22;684957;28;1131;-80
2023/03/30 00:04:10;;;;;;;5.93;3.00;;;;;;;14.09;54.94;100130.34;680387;29;1010;-80
2023/03/30 00:04:33;;;;;;;4.95;2.83;;;;;;;14.11;55.09;100135.63;685532;28;1345;-79
2023/03/30 00:04:53;;;;;;;4.10;2.75;;;;;;;14.14;54.93;100133.03;685384;28;1359;-80
2023/03/30 00:05:18;;;;;;;4.13;2.87;;;;;;;14.15;55.04;100145.28;688199;28;1207;-79
2023/03/30 00:05:41;;;;;;;8.10;3.20;;;;;;;14.13;55.14;100139.13;688012;28;1914;-79
2023/03/30 00:06:04;;;;;;;7.53;3.00;;;;;;;14.22;55.18;100154.03;685506;28;1173;-79
2023/03/30 00:06:25;;;;;;;6.10;2.92;;;;;;;14.18;54.83;100145.28;682801;28;1184;-79
2023/03/30 00:06:47;;;;;;;4.53;2.60;;;;;;;14.22;54.91;100144.44;682532;28;1306;-80
2023/03/30 00:07:08;;;;;;;4.25;2.80;;;;;;;14.25;54.85;100148.78;680173;29;1282;-79
2023/03/30 00:07:29;;;;;;;3.25;2.83;;;;;;;14.20;54.92;100140.91;680139;29;1483;-79
2023/03/30 00:07:50;;;;;;;3.20;2.80;;;;;;;14.25;54.66;100149.69;680088;29;1246;-79
2023/03/30 00:08:13;;;;;;;3.03;2.72;;;;;;;14.20;54.75;100138.28;680221;29;1328;-79
2023/03/30 00:08:34;;;;;;;3.90;2.90;;;;;;;14.21;55.02;100144.44;682883;29;1345;-79
2023/03/30 00:08:57;;;;;;;3.90;2.88;;;;;;;14.16;54.84;100128.66;688034;28;1088;-79
2023/03/30 00:09:18;;;;;;;3.42;2.80;;;;;;;14.15;54.82;100126.91;688429;28;1356;-79
2023/03/30 00:09:53;;;;;;;3.40;2.50;;;;;;;14.22;55.05;100133.06;686359;28;1193;-80
2023/03/30 00:10:18;;;;;;;3.60;2.55;;;;;;;14.22;54.92;100139.19;686349;28;1161;-80
2023/03/30 00:10:43;;;;;;;3.25;2.80;;;;;;;14.13;54.66;100118.16;686288;28;1281;-79
2023/03/30 00:11:12;;;;;;;3.70;2.75;;;;;;;14.24;54.73;100140.06;683667;29;1488;-79
2023/03/30 00:11:33;;;;;;;4.47;2.90;;;;;;;14.13;54.90;100128.63;686381;28;1370;-79
2023/03/30 00:11:54;;;;;;;4.18;2.75;;;;;;;14.16;54.61;100128.66;686275;28;1347;-79
2023/03/30 00:12:33;;;;;;;4.55;2.70;;;;;;;14.30;54.54;100130.44;686505;28;1116;-79
2023/03/30 00:12:55;;;;;;;9.07;3.10;;;;;;;14.24;54.48;100134.81;688956;28;1189;-81
2023/03/30 00:13:15;;;;;;;7.95;3.00;;;;;;;14.18;54.57;100119.03;691876;28;1009;-80
2023/03/30 00:13:36;;;;;;;7.50;2.70;;;;;;;14.24;54.51;100137.44;688710;28;1356;-80
2023/03/30 00:13:57;;;;;;;7.85;2.72;;;;;;;14.17;54.45;100127.78;691748;28;1251;-80
2023/03/30 00:14:21;;;;;;;8.07;2.80;;;;;;;14.23;54.77;100140.94;686390;28;1139;-79
2023/03/30 00:14:42;;;;;;;5.25;2.80;;;;;;;14.19;54.54;100133.91;686417;28;995;-79
2023/03/30 00:15:05;;;;;;;6.00;2.70;;;;;;;14.11;54.64;100126.03;686460;28;1084;-79
2023/03/30 00:15:25;;;;;;;6.10;2.80;;;;;;;14.06;54.73;100114.59;686468;28;1115;-80
2023/03/30 00:15:46;;;;;;;5.40;2.83;;;;;;;14.11;54.64;100126.03;686651;28;973;-79
2023/03/30 00:16:09;;;;;;;3.33;2.80;;;;;;;14.08;54.57;100119.88;689189;28;1167;-79
2023/03/30 00:16:30;;;;;;;4.30;2.72;;;;;;;14.15;54.80;100131.28;689138;28;1241;-79
2023/03/30 00:16:52;;;;;;;5.00;2.80;;;;;;;14.12;54.79;100126.91;686125;28;1288;-80
2023/03/30 00:17:12;;;;;;;5.35;2.88;;;;;;;14.10;54.53;100124.25;682972;29;1309;-79
2023/03/30 00:17:33;;;;;;;4.40;2.90;;;;;;;14.07;54.93;100112.88;678471;29;1224;-79
2023/03/30 00:17:54;;;;;;;5.03;3.20;;;;;;;14.14;54.63;100119.03;681032;29;1214;-80
2023/03/30 00:18:14;;;;;;;3.80;3.00;;;;;;;14.19;54.56;100133.91;683781;29;1180;-80
2023/03/30 00:18:36;;;;;;;4.38;3.05;;;;;;;14.12;54.57;100119.03;683832;29;812;-80
2023/03/30 00:18:56;;;;;;;4.20;2.88;;;;;;;14.03;54.58;100101.50;686367;28;926;-80
2023/03/30 00:19:17;;;;;;;4.37;2.73;;;;;;;14.06;54.69;100111.97;683670;29;1300;-80
2023/03/30 00:19:37;;;;;;;5.50;2.78;;;;;;;14.07;54.59;100118.13;683694;28;1199;-80
2023/03/30 00:20:10;;;;;;;4.77;2.63;;;;;;;14.13;54.91;100118.16;686497;28;902;-80
2023/03/30 00:20:33;;;;;;;4.45;2.83;;;;;;;14.11;54.71;100110.28;683739;28;1085;-79
2023/03/30 00:20:54;;;;;;;4.00;2.78;;;;;;;14.14;54.47;100111.16;686301;28;1089;-79
2023/03/30 00:21:19;;;;;;;3.90;2.60;;;;;;;14.11;54.59;100106.78;686354;28;1445;-79
2023/03/30 00:21:40;;;;;;;5.30;2.60;;;;;;;14.10;54.50;100100.66;686347;28;1216;-80
2023/03/30 00:22:00;;;;;;;5.00;2.47;;;;;;;14.15;54.64;100113.81;686377;28;1401;-80
2023/03/30 00:22:21;;;;;;;5.80;2.40;;;;;;;14.10;54.48;100107.63;683763;29;1315;-79
2023/03/30 00:22:44;;;;;;;6.60;2.70;;;;;;;14.09;54.58;100111.13;686443;28;1356;-80
2023/03/30 00:23:04;;;;;;;7.47;2.88;;;;;;;14.06;54.39;100100.59;689142;28;1245;-79
2023/03/30 00:23:25;;;;;;;6.32;3.00;;;;;;;14.08;54.17;100110.22;689481;28;1012;-79
2023/03/30 00:23:46;;;;;;;4.55;2.80;;;;;;;14.00;54.44;100100.59;689367;28;1252;-79
2023/03/30 00:24:07;;;;;;;4.10;2.70;;;;;;;14.01;54.75;100105.84;686935;28;1217;-79
2023/03/30 00:24:27;;;;;;;3.30;2.60;;;;;;;14.03;54.71;100113.72;689562;28;1298;-79
2023/03/30 00:24:48;;;;;;;3.90;2.80;;;;;;;13.93;54.74;100095.34;689375;28;1177;-79
2023/03/30 00:25:11;;;;;;;3.80;2.90;;;;;;;13.97;54.67;100107.56;689394;28;1290;-79
2023/03/30 00:25:32;;;;;;;4.15;3.10;;;;;;;13.89;54.88;100104.06;684223;29;1970;-79
2023/03/30 00:25:53;;;;;;;3.90;2.90;;;;;;;13.88;54.81;100101.44;689435;28;1346;-79
2023/03/30 00:26:14;;;;;;;3.83;2.63;;;;;;;13.85;54.76;100107.53;689772;28;1366;-80
2023/03/30 00:26:34;;;;;;;4.18;2.47;;;;;;;13.76;55.17;100092.63;684080;29;1465;-79
2023/03/30 00:26:55;;;;;;;4.97;2.50;;;;;;;13.74;55.17;100094.38;684116;28;1229;-79
2023/03/30 00:27:16;;;;;;;5.20;2.60;;;;;;;13.82;55.13;100102.28;684137;28;1413;-79
2023/03/30 00:27:38;;;;;;;5.15;2.83;;;;;;;13.75;55.02;100101.38;686966;28;1099;-79
2023/03/30 00:27:59;;;;;;;4.40;2.80;;;;;;;13.69;55.21;100089.13;687085;28;966;-80
2023/03/30 00:28:20;;;;;;;4.63;2.90;;;;;;;13.70;55.29;100092.59;687145;28;1263;-79
2023/03/30 00:28:41;;;;;;;4.05;2.70;;;;;;;13.74;55.17;100110.13;689510;28;1166;-79
2023/03/30 00:29:01;;;;;;;4.00;2.67;;;;;;;13.70;54.91;100098.75;689457;28;1413;-79
2023/03/30 00:29:22;;;;;;;4.22;2.70;;;;;;;13.64;55.52;100092.59;684093;29;1342;-79
2023/03/30 00:29:43;;;;;;;5.00;2.77;;;;;;;13.73;55.58;100107.47;678750;29;1266;-79
2023/03/30 00:30:05;;;;;;;4.88;2.90;;;;;;;13.75;55.43;100105.78;683916;29;1166;-79
2023/03/30 00:30:26;;;;;;;3.85;2.80;;;;;;;13.67;55.51;100092.59;684159;29;1304;-79
2023/03/30 00:30:48;;;;;;;4.95;2.80;;;;;;;13.71;55.48;100097.88;686551;28;1081;-79
2023/03/30 00:31:10;;;;;;;4.88;2.78;;;;;;;13.70;55.40;100105.72;686775;28;961;-79
2023/03/30 00:31:31;;;;;;;4.82;2.80;;;;;;;13.63;55.52;100093.47;683942;29;1255;-79
2023/03/30 00:31:51;;;;;;;3.70;2.60;;;;;;;13.66;55.42;100103.97;686571;28;1042;-79
2023/03/30 00:32:12;;;;;;;3.35;2.60;;;;;;;13.64;55.47;100097.84;683812;28;1095;-79
2023/03/30 00:32:33;;;;;;;3.15;2.72;;;;;;;13.69;55.55;100110.09;683524;29;1306;-79
2023/03/30 00:32:54;;;;;;;3.13;2.80;;;;;;;13.65;55.50;100097.84;681028;29;984;-79
2023/03/30 00:33:15;;;;;;;3.67;2.80;;;;;;;13.56;55.53;100089.94;683906;29;1181;-79
2023/03/30 00:33:35;;;;;;;4.40;2.60;;;;;;;13.64;55.58;100098.72;683828;28;1306;-79
2023/03/30 00:33:57;;;;;;;5.03;2.50;;;;;;;13.67;55.27;100106.59;686456;28;1143;-79
2023/03/30 00:34:18;;;;;;;4.43;2.35;;;;;;;13.65;55.76;100102.22;681109;29;1367;-79
2023/03/30 00:34:39;;;;;;;4.13;2.30;;;;;;;13.61;55.58;100097.81;689065;28;1338;-79
2023/03/30 00:35:00;;;;;;;3.33;2.20;;;;;;;13.61;55.47;100100.44;689161;28;798;-79
2023/03/30 00:35:20;;;;;;;2.67;2.20;;;;;;;13.49;55.82;100072.41;686436;28;1217;-79
2023/03/30 00:35:41;;;;;;;2.95;2.35;;;;;;;13.59;55.80;100094.31;686397;28;1200;-79
2023/03/30 00:36:02;;;;;;;3.70;2.60;;;;;;;13.59;55.63;100097.84;686461;28;1156;-79
2023/03/30 00:36:23;;;;;;;5.22;2.88;;;;;;;13.51;55.77;100086.44;686516;28;1274;-79
2023/03/30 00:36:45;;;;;;;5.30;2.90;;;;;;;13.58;55.55;100103.91;686134;28;1232;-80
2023/03/30 00:37:06;;;;;;;4.85;2.67;;;;;;;13.58;55.50;100101.28;686499;28;1084;-79
2023/03/30 00:37:27;;;;;;;4.83;2.70;;;;;;;13.60;55.52;100096.97;683667;29;903;-79
2023/03/30 00:37:48;;;;;;;4.68;2.47;;;;;;;13.56;55.76;100089.94;683555;28;1265;-79
2023/03/30 00:38:08;;;;;;;5.07;2.72;;;;;;;13.57;55.75;100094.31;689279;28;1040;-79
2023/03/30 00:38:29;;;;;;;4.40;2.70;;;;;;;13.60;55.63;100099.59;683749;29;1284;-79
2023/03/30 00:38:50;;;;;;;4.15;2.88;;;;;;;13.65;55.69;100104.84;683570;28;1109;-79
2023/03/30 00:39:11;;;;;;;4.23;2.73;;;;;;;13.63;55.65;100090.88;683754;29;1035;-79
2023/03/30 00:39:32;;;;;;;4.78;2.70;;;;;;;13.64;55.75;100095.22;686509;28;1013;-79
2023/03/30 00:39:53;;;;;;;7.68;2.65;;;;;;;13.62;55.39;100087.34;683655;29;1161;-79
2023/03/30 00:40:18;;;;;;;8.15;2.60;;;;;;;13.74;55.42;100096.13;686348;28;1211;-79
2023/03/30 00:40:38;;;;;;;8.40;2.53;;;;;;;13.74;55.45;100088.25;683796;28;1304;-79
2023/03/30 00:41:00;;;;;;;5.77;2.43;;;;;;;13.74;55.44;100088.25;681147;29;828;-79
2023/03/30 00:41:21;;;;;;;5.07;2.45;;;;;;;13.81;55.07;100088.31;683804;29;1147;-80
2023/03/30 00:41:41;;;;;;;4.45;2.30;;;;;;;13.78;55.16;100079.53;688992;28;1164;-80
2023/03/30 00:42:02;;;;;;;5.40;2.40;;;;;;;13.83;55.21;100083.06;683698;28;1147;-80
2023/03/30 00:42:23;;;;;;;5.97;2.50;;;;;;;13.79;54.98;100070.81;683664;29;1008;-80
2023/03/30 00:42:44;;;;;;;5.95;2.53;;;;;;;13.81;54.76;100074.31;680969;29;1074;-79
2023/03/30 00:43:10;;;;;;;4.77;2.60;;;;;;;13.85;54.93;100076.06;686527;28;1365;-80
2023/03/30 00:43:32;;;;;;;4.40;2.80;;;;;;;13.95;54.43;100090.09;683733;29;2020;-79
2023/03/30 00:43:55;;;;;;;3.30;2.70;;;;;;;13.99;54.38;100094.47;683591;28;1463;-80
2023/03/30 00:44:55;;;;;;;4.15;2.58;;;;;;;14.16;54.42;100099.81;683727;29;1311;-79
2023/03/30 00:45:21;;;;;;;3.75;2.78;;;;;;;14.24;53.78;100100.69;683665;29;1101;-80
2023/03/30 00:45:42;;;;;;;4.10;2.80;;;;;;;14.15;53.85;100086.69;688958;28;1964;-79
2023/03/30 00:46:02;;;;;;;4.60;2.80;;;;;;;14.17;53.79;100088.44;686304;28;1214;-80
2023/03/30 00:46:23;;;;;;;4.85;2.80;;;;;;;14.23;53.66;100091.09;690658;28;1144;-79
2023/03/30 00:46:43;;;;;;;4.30;2.70;;;;;;;14.23;53.59;100085.84;686214;28;1371;-79
2023/03/30 00:47:04;;;;;;;4.23;2.80;;;;;;;14.28;53.24;100077.06;686270;28;1291;-80
2023/03/30 00:47:26;;;;;;;4.25;2.67;;;;;;;14.32;53.61;100084.94;683752;29;1040;-79
2023/03/30 00:48:19;;;;;;;4.90;2.60;;;;;;;14.35;53.30;100081.47;686117;28;1053;-78
2023/03/30 00:48:40;;;;;;;7.03;2.60;;;;;;;14.38;53.22;100089.34;688691;28;1242;-79
2023/03/30 00:49:07;;;;;;;4.53;2.50;;;;;;;14.44;53.11;100091.97;683613;28;1237;-79
2023/03/30 00:49:38;;;;;;;2.83;2.40;;;;;;;14.40;53.05;100079.72;681144;28;1249;-79
2023/03/30 00:49:59;;;;;;;4.50;2.50;;;;;;;14.38;52.87;100073.63;683712;28;832;-79
2023/03/30 00:50:24;;;;;;;4.88;2.40;;;;;;;14.45;52.90;100082.34;686356;28;1156;-79
2023/03/30 00:50:51;;;;;;;4.32;2.40;;;;;;;14.50;52.71;100093.75;691573;28;1102;-78
2023/03/30 00:51:12;;;;;;;3.90;2.40;;;;;;;14.42;52.63;100080.59;689114;28;1004;-79
2023/03/30 00:51:37;;;;;;;4.03;2.50;;;;;;;14.48;52.76;100085.84;688901;28;1223;-79
2023/03/30 00:51:57;;;;;;;3.30;2.42;;;;;;;14.47;52.54;100084.13;691527;28;1281;-80
2023/03/30 00:52:23;;;;;;;5.07;2.58;;;;;;;14.42;52.62;100077.09;689037;28;977;-79
2023/03/30 00:52:45;;;;;;;6.72;2.90;;;;;;;14.48;52.75;100087.59;683482;28;1117;-79
2023/03/30 00:53:15;;;;;;;6.70;3.00;;;;;;;14.46;52.49;100086.72;681202;29;1211;-80
2023/03/30 00:53:42;;;;;;;5.18;2.70;;;;;;;14.52;52.23;100079.72;686451;28;765;-79
2023/03/30 00:54:08;;;;;;;5.18;2.42;;;;;;;14.48;52.44;100072.72;683677;29;1328;-80
2023/03/30 00:54:29;;;;;;;5.53;2.53;;;;;;;14.58;52.43;100088.47;681081;29;1362;-80
2023/03/30 00:54:51;;;;;;;6.05;2.80;;;;;;;14.55;52.18;100078.84;683510;29;1113;-80
2023/03/30 00:55:12;;;;;;;6.03;2.80;;;;;;;14.58;52.49;100078.88;681033;29;1300;-79
2023/03/30 00:55:35;;;;;;;4.77;2.60;;;;;;;14.56;52.20;100085.84;681141;29;776;-79
2023/03/30 00:55:59;;;;;;;4.68;2.50;;;;;;;14.62;51.96;100085.00;686310;28;1082;-80
2023/03/30 00:56:26;;;;;;;7.68;2.65;;;;;;;14.61;52.22;100094.63;685475;28;1229;-79
2023/03/30 00:56:47;;;;;;;6.85;2.50;;;;;;;14.57;52.06;100087.59;680695;29;1250;-79
2023/03/30 00:57:07;;;;;;;3.83;2.30;;;;;;;14.51;52.17;100072.72;683836;29;1038;-79
2023/03/30 00:57:28;;;;;;;3.90;2.20;;;;;;;14.64;52.06;100085.88;680961;29;1100;-80
2023/03/30 00:57:51;;;;;;;3.63;2.40;;;;;;;14.70;51.87;100093.75;683667;29;1069;-79
2023/03/30 00:58:14;;;;;;;2.78;2.47;;;;;;;14.69;52.08;100089.34;686387;28;1416;-79
2023/03/30 00:58:37;;;;;;;3.40;2.42;;;;;;;14.56;51.91;100072.72;683637;29;1127;-79
2023/03/30 00:59:01;;;;;;;3.22;2.30;;;;;;;14.57;51.81;100065.72;683686;29;1323;-79
2023/03/30 00:59:22;;;;;;;3.95;2.53;;;;;;;14.62;51.90;100077.13;683625;29;1322;-79
2023/03/30 00:59:43;;;;;;;4.50;2.70;;;;;;;14.64;51.96;100085.88;683523;29;1242;-79
2023/03/30 01:00:07;;;;;;;4.82;2.60;;;;;;;14.60;51.93;100071.88;683692;29;1323;-79
2023/03/30 01:00:27;;;;;;;3.90;2.60;;;;;;;14.59;52.00;100066.59;681007;29;979;-79
2023/03/30 01:00:50;;;;;;;4.43;2.70;;;;;;;14.66;51.82;100065.72;683242;29;1438;-79
2023/03/30 01:01:14;;;;;;;4.90;2.78;;;;;;;14.61;51.76;100057.84;686340;28;1391;-79
2023/03/30 01:01:37;;;;;;;4.95;2.50;;;;;;;14.73;51.62;100072.72;683682;29;1263;-79
2023/03/30 01:01:59;;;;;;;4.53;2.55;;;;;;;14.76;51.57;100085.00;683767;29;915;-81
2023/03/30 01:02:20;;;;;;;4.00;2.60;;;;;;;14.74;51.46;100078.88;681152;29;1159;-80
2023/03/30 01:03:00;;;;;;;3.40;2.50;;;;;;;14.70;51.75;100080.63;683581;29;1133;-79
2023/03/30 01:03:26;;;;;;;4.00;2.30;;;;;;;14.63;51.62;100060.50;683749;29;1078;-80
2023/03/30 01:03:49;;;;;;;4.30;2.20;;;;;;;14.66;51.52;100065.72;683538;29;1258;-79
2023/03/30 01:04:10;;;;;;;3.65;2.40;;;;;;;14.68;51.50;100068.38;681025;29;1277;-80
2023/03/30 01:04:30;;;;;;;4.07;2.42;;;;;;;14.77;51.55;100068.34;683794;29;1008;-80
2023/03/30 01:04:55;;;;;;;3.15;2.40;;;;;;;14.73;51.29;100056.97;686170;28;1181;-80
2023/03/30 01:05:15;;;;;;;3.95;2.33;;;;;;;14.77;51.22;100063.09;683572;29;1256;-80
2023/03/30 01:05:40;;;;;;;4.70;2.50;;;;;;;14.83;51.19;100067.47;678442;29;1984;-80
2023/03/30 01:06:06;;;;;;;4.85;2.70;;;;;;;14.90;50.96;100074.47;686318;28;1492;-80
2023/03/30 01:06:28;;;;;;;4.53;2.60;;;;;;;14.81;50.86;100049.06;688778;28;1353;-79
2023/03/30 01:06:51;;;;;;;7.32;2.97;;;;;;;14.88;50.66;100060.47;688722;28;1236;-80
2023/03/30 01:07:12;;;;;;;8.82;3.38;;;;;;;14.91;50.52;100060.44;686335;28;1103;-80
2023/03/30 01:07:33;;;;;;;5.53;3.00;;;;;;;15.04;50.51;100072.69;686550;28;1156;-79
2023/03/30 01:07:56;;;;;;;3.92;2.70;;;;;;;15.03;50.61;100067.44;686244;28;1024;-80
2023/03/30 01:08:19;;;;;;;3.35;2.50;;;;;;;15.01;50.50;100061.31;686418;28;1091;-80
2023/03/30 01:08:41;;;;;;;4.65;2.50;;;;;;;15.08;50.23;100071.78;689039;28;1128;-80
2023/03/30 01:09:02;;;;;;;5.20;2.55;;;;;;;15.03;50.32;100055.19;683600;28;1469;-79
2023/03/30 01:09:24;;;;;;;5.05;2.75;;;;;;;15.02;50.34;100058.69;686367;28;990;-79
2023/03/30 01:09:45;;;;;;;7.03;3.10;;;;;;;15.03;50.19;100059.56;685497;28;1260;-79
2023/03/30 01:10:07;;;;;;;7.78;3.10;;;;;;;15.15;50.23;100069.16;686439;28;1179;-79
2023/03/30 01:10:28;;;;;;;6.53;2.80;;;;;;;15.03;50.14;100057.81;686378;28;1212;-79
2023/03/30 01:10:52;;;;;;;3.43;2.50;;;;;;;15.07;50.35;100064.81;683528;28;1266;-79
2023/03/30 01:11:14;;;;;;;4.03;2.58;;;;;;;15.06;50.57;100054.31;683687;29;1133;-79
2023/03/30 01:11:35;;;;;;;4.80;2.63;;;;;;;15.07;50.37;100064.81;685691;28;1362;-79
2023/03/30 01:11:56;;;;;;;5.50;2.40;;;;;;;15.10;50.24;100070.94;686249;28;1076;-81
2023/03/30 01:12:19;;;;;;;6.97;2.60;;;;;;;15.10;50.13;100068.31;681079;29;1426;-80
2023/03/30 01:12:39;;;;;;;6.18;2.50;;;;;;;15.01;50.31;100054.28;683623;29;1254;-79
2023/03/30 01:13:02;;;;;;;6.25;2.55;;;;;;;14.98;50.30;100040.31;689089;28;1379;-80
2023/03/30 01:13:22;;;;;;;4.40;2.40;;;;;;;15.05;50.26;100055.16;686444;28;1382;-80
2023/03/30 01:13:46;;;;;;;3.10;2.30;;;;;;;15.07;50.16;100056.06;687986;28;1129;-80
2023/03/30 01:14:10;;;;;;;3.40;2.60;;;;;;;15.06;50.23;100055.16;689643;28;1304;-79
2023/03/30 01:14:31;;;;;;;9.15;2.80;;;;;;;15.05;50.08;100050.78;687075;29;1316;-79
2023/03/30 01:14:52;;;;;;;9.75;3.10;;;;;;;15.05;50.05;100044.66;689626;28;1234;-78
2023/03/30 01:15:14;;;;;;;9.45;2.90;;;;;;;15.11;50.13;100054.31;686360;28;1507;-79
2023/03/30 01:15:42;;;;;;;6.97;2.92;;;;;;;15.14;50.24;100056.91;683958;29;1235;-79
2023/03/30 01:16:30;;;;;;;6.32;2.60;;;;;;;15.13;49.82;100055.16;688839;28;1225;-79
2023/03/30 01:17:22;;;;;;;4.38;2.40;;;;;;;15.12;49.90;100053.41;688710;28;1104;-79
2023/03/30 01:18:07;;;;;;;6.05;2.47;;;;;;;15.12;49.84;100050.78;688341;28;1082;-80
2023/03/30 01:18:53;;;;;;;5.90;2.60;;;;;;;15.00;49.97;100044.66;684031;28;1112;-79
2023/03/30 01:19:32;;;;;;;3.28;2.50;;;;;;;15.08;50.10;100056.03;684282;29;1227;-79
2023/03/30 01:20:33;;;;;;;3.78;2.30;;;;;;;15.08;49.68;100053.41;686286;28;983;-80
2023/03/30 01:21:29;;;;;;;3.60;2.42;;;;;;;15.04;49.86;100041.16;681684;28;936;-79
2023/03/30 01:22:11;;;;;;;3.80;2.40;;;;;;;15.06;49.98;100043.81;688124;28;1123;-78
2023/03/30 01:22:57;;;;;;;3.65;2.38;;;;;;;15.01;49.89;100043.78;686732;28;946;-79
2023/03/30 01:23:36;;;;;;;3.78;2.40;;;;;;;14.96;49.91;100042.94;683840;28;1148;-79
2023/03/30 01:24:26;;;;;;;5.90;2.90;;;;;;;14.83;50.08;100030.69;683814;29;1130;-79
2023/03/30 01:25:13;;;;;;;3.83;2.35;;;;;;;14.85;50.29;100039.44;683565;29;1387;-79
2023/03/30 01:25:49;;;;;;;3.00;2.47;;;;;;;14.80;50.45;100032.44;678326;29;1886;-79
2023/03/30 01:26:10;;;;;;;5.45;2.80;;;;;;;14.85;50.42;100042.06;681021;29;2040;-79
2023/03/30 01:27:20;;;;;;;5.57;2.77;;;;;;;14.79;50.38;100043.84;683585;29;1017;-79
2023/03/30 01:28:11;;;;;;;3.30;2.58;;;;;;;14.71;50.55;100034.22;686045;28;1136;-79
2023/03/30 01:28:45;;;;;;;5.90;2.40;;;;;;;14.74;50.58;100031.59;680821;29;1358;-79
2023/03/30 01:29:12;;;;;;;5.88;2.50;;;;;;;14.69;50.55;100028.09;683345;29;1059;-79
2023/03/30 01:30:03;;;;;;;4.07;2.33;;;;;;;14.70;50.58;100027.22;680750;29;1245;-79
2023/03/30 01:30:45;;;;;;;4.43;2.35;;;;;;;14.67;50.72;100030.72;680789;29;1065;-79
2023/03/30 01:32:05;;;;;;;4.30;2.50;;;;;;;14.59;50.67;100017.59;680630;29;1133;-79
2023/03/30 01:33:00;;;;;;;4.43;2.80;;;;;;;14.55;50.87;100009.72;683103;29;1253;-80
2023/03/30 01:33:42;;;;;;;3.10;2.50;;;;;;;14.64;50.74;100023.72;680589;29;1017;-80
2023/03/30 01:34:17;;;;;;;4.35;2.50;;;;;;;14.63;50.68;100023.72;680630;29;1075;-79
2023/03/30 01:34:48;;;;;;;5.15;2.60;;;;;;;14.56;50.82;100009.72;677856;29;1070;-79
2023/03/30 01:35:19;;;;;;;6.93;2.60;;;;;;;14.55;50.75;100005.34;677894;29;1146;-80
2023/03/30 01:36:17;;;;;;;5.60;2.38;;;;;;;14.63;50.61;100029.84;677842;29;1212;-79
2023/03/30 01:37:15;;;;;;;4.20;2.58;;;;;;;14.69;50.71;100023.69;680475;29;1280;-79
2023/03/30 01:37:57;;;;;;;3.80;2.40;;;;;;;14.72;50.56;100023.72;679756;29;1279;-79
2023/03/30 01:38:40;;;;;;;4.03;2.40;;;;;;;14.78;50.44;100025.44;680525;29;1272;-79
2023/03/30 01:39:06;;;;;;;3.88;2.40;;;;;;;14.78;50.36;100026.34;683212;28;2217;-79
2023/03/30 01:39:32;;;;;;;3.53;2.20;;;;;;;14.84;50.32;100027.19;683272;29;1255;-79
2023/03/30 01:39:59;;;;;;;4.05;2.40;;;;;;;14.86;50.06;100025.47;685730;28;1102;-80
2023/03/30 01:40:24;;;;;;;5.50;2.60;;;;;;;14.76;50.13;100012.31;683277;29;1201;-80
2023/03/30 01:40:54;;;;;;;4.45;2.50;;;;;;;14.77;49.96;100011.44;685812;28;1113;-80
2023/03/30 01:41:37;;;;;;;3.70;2.50;;;;;;;14.85;49.92;100026.31;683161;29;1434;-78
2023/03/30 01:42:17;;;;;;;3.20;2.25;;;;;;;14.78;50.02;100002.69;683153;29;1135;-79
2023/03/30 01:42:56;;;;;;;3.25;2.28;;;;;;;14.89;49.84;100017.56;685824;28;1001;-79
2023/03/30 01:43:32;;;;;;;4.00;2.35;;;;;;;14.91;49.79;100018.41;685835;28;1136;-79
2023/03/30 01:44:13;;;;;;;3.90;2.53;;;;;;;14.96;49.70;100011.41;687562;28;1113;-79
2023/03/30 01:44:47;;;;;;;4.28;2.88;;;;;;;14.94;49.58;100014.03;685759;28;2099;-80
2023/03/30 01:45:15;;;;;;;3.28;2.40;;;;;;;14.95;49.70;99999.16;687275;28;997;-79
2023/03/30 01:45:50;;;;;;;4.13;2.60;;;;;;;15.04;49.64;100017.53;683219;29;1953;-80
2023/03/30 01:46:23;;;;;;;3.72;2.47;;;;;;;15.03;49.33;100013.16;685749;28;1119;-80
2023/03/30 01:46:51;;;;;;;2.70;2.30;;;;;;;15.07;49.38;100009.63;683134;28;1023;-79
2023/03/30 01:47:28;;;;;;;4.18;2.40;;;;;;;15.04;49.42;100008.75;683304;29;1093;-79
2023/03/30 01:48:03;;;;;;;4.50;2.50;;;;;;;15.04;49.50;100009.63;688556;28;1067;-79
2023/03/30 01:48:34;;;;;;;3.05;2.47;;;;;;;15.11;49.39;100004.38;685843;28;1135;-79
2023/03/30 01:49:35;;;;;;;5.50;2.60;;;;;;;15.10;49.22;100008.75;683332;28;1029;-80
2023/03/30 01:49:58;;;;;;;4.53;2.60;;;;;;;15.12;49.42;100006.97;682709;28;1269;-79
2023/03/30 01:50:22;;;;;;;3.38;2.47;;;;;;;15.01;49.75;99996.50;685794;28;1303;-79
2023/03/30 01:50:55;;;;;;;3.08;2.40;;;;;;;15.08;49.81;100005.25;680400;29;1032;-80
2023/03/30 01:51:28;;;;;;;3.20;2.13;;;;;;;15.05;49.56;100008.75;683178;29;1167;-79
2023/03/30 01:52:09;;;;;;;3.05;2.20;;;;;;;14.95;50.00;99993.91;685712;28;1135;-79
2023/03/30 01:52:40;;;;;;;4.00;2.67;;;;;;;15.04;49.94;100014.00;685767;28;1080;-79
2023/03/30 01:53:24;;;;;;;4.05;2.53;;;;;;;15.00;49.92;100007.88;683214;29;864;-80
2023/03/30 01:53:52;;;;;;;4.18;2.58;;;;;;;14.97;49.93;100001.75;683016;29;913;-80
2023/03/30 01:54:23;;;;;;;4.88;2.63;;;;;;;14.94;49.76;99994.78;685904;28;1041;-79
2023/03/30 01:54:55;;;;;;;3.90;2.60;;;;;;;15.06;49.61;100004.38;685560;28;1283;-79
2023/03/30 01:55:24;;;;;;;4.20;2.45;;;;;;;15.07;49.61;100008.75;683155;29;1123;-79
2023/03/30 01:55:45;;;;;;;6.05;2.70;;;;;;;15.10;49.46;100007.88;685665;28;1379;-78
2023/03/30 01:56:23;;;;;;;7.07;2.60;;;;;;;15.11;49.31;100004.38;685937;28;1097;-79
2023/03/30 01:57:08;;;;;;;5.63;2.20;;;;;;;15.06;49.30;100005.25;685644;28;1127;-79
2023/03/30 01:57:43;;;;;;;4.25;2.25;;;;;;;15.20;49.07;100006.97;683090;29;1253;-79
2023/03/30 01:58:23;;;;;;;5.05;2.40;;;;;;;15.24;48.96;100011.34;683317;29;866;-79
2023/03/30 01:59:13;;;;;;;4.57;2.60;;;;;;;15.28;48.95;100015.72;682903;28;1260;-80
2023/03/30 01:59:45;;;;;;;6.82;2.50;;;;;;;15.23;48.63;100014.88;680731;29;800;-80
2023/03/30 02:00:14;;;;;;;6.07;2.60;;;;;;;15.28;48.64;100006.97;685758;28;1049;-80
2023/03/30 02:00:37;;;;;;;7.13;2.80;;;;;;;15.30;48.58;100008.72;685881;28;788;-80
2023/03/30 02:01:00;;;;;;;7.78;2.80;;;;;;;15.33;48.63;100006.09;683218;29;1044;-80
2023/03/30 02:01:22;;;;;;;6.45;2.70;;;;;;;15.25;48.43;100002.63;683138;29;1350;-79
2023/03/30 02:01:49;;;;;;;5.97;2.60;;;;;;;15.28;48.46;100004.31;688329;28;1461;-80
2023/03/30 02:02:14;;;;;;;4.90;2.40;;;;;;;15.29;48.37;100000.81;685911;28;1059;-80
2023/03/30 02:02:35;;;;;;;6.95;2.50;;;;;;;15.33;48.38;100005.19;685946;28;889;-79
2023/03/30 02:03:04;;;;;;;6.10;2.50;;;;;;;15.35;48.11;100000.78;688410;28;1282;-80
2023/03/30 02:03:29;;;;;;;6.32;2.50;;;;;;;15.44;48.13;100013.03;683067;29;1354;-79
2023/03/30 02:03:57;;;;;;;4.47;2.53;;;;;;;15.47;48.20;100019.16;685719;28;1021;-80
2023/03/30 02:04:21;;;;;;;6.10;2.80;;;;;;;15.47;47.99;99997.25;691195;28;1065;-80
2023/03/30 02:04:44;;;;;;;6.20;2.85;;;;;;;15.53;47.95;100007.72;685648;28;1247;-80
2023/03/30 02:05:06;;;;;;;6.28;2.80;;;;;;;15.54;47.59;100008.63;680501;28;1496;-80
2023/03/30 02:05:29;;;;;;;4.90;2.53;;;;;;;15.54;47.71;100009.47;685787;28;1274;-79
2023/03/30 02:05:55;;;;;;;3.35;2.15;;;;;;;15.54;47.80;100003.38;691191;28;1986;-80
2023/03/30 02:06:39;;;;;;;3.97;2.20;;;;;;;15.56;47.72;100006.84;688416;28;1108;-79
2023/03/30 02:07:06;;;;;;;7.32;2.50;;;;;;;15.51;47.66;100004.25;683061;28;947;-79
2023/03/30 02:07:31;;;;;;;5.60;2.40;;;;;;;15.50;47.75;99997.25;685916;28;1352;-80
2023/03/30 02:07:56;;;;;;;4.40;2.63;;;;;;;15.52;47.72;100006.00;683320;29;831;-79
2023/03/30 02:08:37;;;;;;;4.35;2.70;;;;;;;15.56;47.63;100007.72;685881;28;686;-80